Time;durP1;ratioP1;P1;durP2;ratioP2;P2;SDS_P1;SDS_P2;PMS_P1;PMS_P2;Temp;Humidity;BMP_temperature;BMP_pressure;BME280_temperature;BME280_humidity;BME280_pressure;Samples;Min_cycle;Max_cycle;Signal;HPM_P1;HPM_P2
2023/03/17 00:01:19;;;;;;;7.28;4.57;;;7.60;99.90;;;;;;5048753;28;20075;-65
2023/03/17 00:03:48;;;;;;;7.28;4.03;;;7.60;99.90;;;;;;5048840;28;20053;-65
2023/03/17 00:06:32;;;;;;;7.03;4.57;;;7.50;99.90;;;;;;5048760;28;20223;-65
2023/03/17 00:08:59;;;;;;;7.72;4.63;;;7.50;99.90;;;;;;5051603;28;20090;-65
2023/03/17 00:11:26;;;;;;;5.50;4.18;;;7.50;99.90;;;;;;5053970;28;20497;-65
2023/03/17 00:13:52;;;;;;;7.00;3.72;;;7.50;99.90;;;;;;5053426;28;20040;-65
2023/03/17 00:16:24;;;;;;;7.53;4.07;;;7.50;99.90;;;;;;5054865;28;20033;-65
2023/03/17 00:18:52;;;;;;;5.97;4.20;;;7.50;99.90;;;;;;5055053;28;20033;-66
2023/03/17 00:21:27;;;;;;;6.88;3.97;;;7.40;99.90;;;;;;5053346;28;20033;-65
2023/03/17 00:23:55;;;;;;;5.13;3.67;;;7.50;99.90;;;;;;5036688;28;20096;-65
2023/03/17 00:26:21;;;;;;;6.38;4.10;;;7.50;99.90;;;;;;5052951;28;20075;-66
2023/03/17 00:28:47;;;;;;;7.97;4.07;;;7.50;99.90;;;;;;5054146;28;20486;-65
2023/03/17 00:31:16;;;;;;;5.63;3.28;;;7.50;99.90;;;;;;5054338;28;20127;-65
2023/03/17 00:33:44;;;;;;;6.47;3.92;;;7.50;99.90;;;;;;5054552;28;20071;-66
2023/03/17 00:36:36;;;;;;;6.68;3.88;;;7.50;99.90;;;;;;5054096;28;20048;-65
2023/03/17 00:39:02;;;;;;;8.40;3.80;;;7.40;99.90;;;;;;5053292;28;20452;-65
2023/03/17 00:41:28;;;;;;;6.82;4.20;;;7.40;99.90;;;;;;5054699;28;20033;-65
2023/03/17 00:43:54;;;;;;;7.40;4.47;;;7.40;99.90;;;;;;5053142;28;20055;-65
2023/03/17 00:46:26;;;;;;;4.45;3.78;;;7.30;99.90;;;;;;5054305;28;20052;-65
2023/03/17 00:48:53;;;;;;;5.68;4.03;;;7.30;99.90;;;;;;5054142;28;20077;-66
2023/03/17 00:51:18;;;;;;;6.68;3.85;;;7.30;99.90;;;;;;5052827;28;20037;-66
2023/03/17 00:53:44;;;;;;;6.35;4.50;;;7.30;99.90;;;;;;5052873;28;20128;-65
2023/03/17 00:56:16;;;;;;;9.05;4.43;;;7.30;99.90;;;;;;5052551;28;20474;-65
2023/03/17 00:58:42;;;;;;;4.90;3.80;;;7.30;99.90;;;;;;5052609;28;20044;-65
2023/03/17 01:01:08;;;;;;;6.32;4.28;;;7.30;99.90;;;;;;5053846;28;20028;-65
2023/03/17 01:03:34;;;;;;;5.35;3.55;;;7.30;99.90;;;;;;5054092;28;20040;-65
2023/03/17 01:06:03;;;;;;;6.90;3.95;;;7.30;99.90;;;;;;5052436;28;20394;-65
2023/03/17 01:08:29;;;;;;;6.38;4.03;;;7.30;99.90;;;;;;5053643;28;20673;-66
2023/03/17 01:10:55;;;;;;;7.78;3.55;;;7.30;99.90;;;;;;5052313;28;20087;-65
2023/03/17 01:13:21;;;;;;;5.40;3.75;;;7.30;99.90;;;;;;5052489;28;20080;-65
2023/03/17 01:15:49;;;;;;;7.72;4.38;;;7.40;99.90;;;;;;5054124;28;20037;-65
2023/03/17 01:18:18;;;;;;;6.68;3.72;;;7.30;99.90;;;;;;5052977;28;20045;-66
2023/03/17 01:20:44;;;;;;;5.95;3.65;;;7.40;99.90;;;;;;5052493;28;20419;-65
2023/03/17 01:23:11;;;;;;;6.88;4.30;;;7.40;99.90;;;;;;5052580;28;20052;-65
2023/03/17 01:25:38;;;;;;;7.07;3.33;;;7.40;99.90;;;;;;5053049;28;20041;-65
2023/03/17 01:28:05;;;;;;;7.10;3.63;;;7.40;99.90;;;;;;5053355;28;20052;-66
2023/03/17 01:30:37;;;;;;;5.22;3.65;;;7.40;99.90;;;;;;5052077;28;20131;-65
2023/03/17 01:33:05;;;;;;;5.35;3.20;;;7.40;99.90;;;;;;5051884;28;20049;-65
2023/03/17 01:35:31;;;;;;;6.20;3.97;;;7.40;99.90;;;;;;5053149;28;20041;-66
2023/03/17 01:37:58;;;;;;;4.95;3.20;;;7.50;99.90;;;;;;5051940;28;20041;-65
2023/03/17 01:40:32;;;;;;;6.63;3.75;;;7.50;99.90;;;;;;5051693;28;20049;-66
2023/03/17 01:43:07;;;;;;;8.43;3.45;;;7.50;99.90;;;;;;5051984;28;20044;-68
2023/03/17 01:46:15;;;;;;;6.32;3.85;;;7.50;99.90;;;;;;5051506;28;20071;-66
2023/03/17 01:48:59;;;;;;;4.55;3.38;;;7.50;99.90;;;;;;5052102;28;20130;-65
2023/03/17 01:51:51;;;;;;;5.10;3.63;;;7.40;99.90;;;;;;5051814;28;20048;-66
2023/03/17 01:54:23;;;;;;;5.30;3.60;;;7.40;99.90;;;;;;5029178;28;20049;-67
2023/03/17 01:56:51;;;;;;;5.45;3.80;;;7.40;99.90;;;;;;5052825;28;20485;-65
2023/03/17 01:59:26;;;;;;;4.95;3.38;;;7.40;99.90;;;;;;5051423;28;20048;-66
2023/03/17 02:01:58;;;;;;;6.05;3.60;;;7.40;99.90;;;;;;5052490;28;20448;-65
2023/03/17 02:04:25;;;;;;;6.93;3.70;;;7.40;99.90;;;;;;5051298;28;20045;-66
2023/03/17 02:06:51;;;;;;;4.03;2.97;;;7.30;99.90;;;;;;5050871;28;20045;-65
2023/03/17 02:09:17;;;;;;;6.43;3.63;;;7.30;99.90;;;;;;5052287;28;20131;-66
2023/03/17 02:11:44;;;;;;;6.93;3.88;;;7.30;99.90;;;;;;5051402;28;20040;-66
2023/03/17 02:14:10;;;;;;;6.65;3.72;;;7.40;99.90;;;;;;5050688;28;20119;-66
2023/03/17 02:16:36;;;;;;;5.50;3.25;;;7.30;99.90;;;;;;5052527;28;20120;-65
2023/03/17 02:19:02;;;;;;;4.95;3.15;;;7.40;99.90;;;;;;5051232;28;20114;-65
2023/03/17 02:21:37;;;;;;;6.20;3.38;;;7.40;99.90;;;;;;5050808;28;20049;-65
2023/03/17 02:24:32;;;;;;;5.25;3.30;;;7.40;99.90;;;;;;5051201;28;20370;-66
2023/03/17 02:27:04;;;;;;;5.72;3.00;;;7.40;99.90;;;;;;5046647;28;20041;-65
2023/03/17 02:29:33;;;;;;;7.55;4.20;;;7.50;99.90;;;;;;5051141;28;20088;-66
2023/03/17 02:32:00;;;;;;;6.25;4.18;;;7.40;99.90;;;;;;5033701;28;20080;-65
2023/03/17 02:34:25;;;;;;;5.25;3.10;;;7.50;99.90;;;;;;5052150;28;20460;-65
2023/03/17 02:36:51;;;;;;;4.53;3.08;;;7.50;99.90;;;;;;5050665;28;20098;-66
2023/03/17 02:39:17;;;;;;;7.55;3.63;;;7.50;99.90;;;;;;5051828;28;20128;-66
2023/03/17 02:41:43;;;;;;;6.88;3.60;;;7.50;99.90;;;;;;5051692;28;20033;-65
2023/03/17 02:44:09;;;;;;;5.60;4.18;;;7.50;99.90;;;;;;5052041;28;20045;-66
2023/03/17 02:46:35;;;;;;;7.72;3.83;;;7.50;99.90;;;;;;5050851;28;20044;-66
2023/03/17 02:49:01;;;;;;;5.85;3.55;;;7.50;99.90;;;;;;5050535;28;20094;-66
2023/03/17 02:51:27;;;;;;;5.55;3.90;;;7.50;99.90;;;;;;5052255;28;20120;-66
2023/03/17 02:53:53;;;;;;;7.28;3.92;;;7.40;99.90;;;;;;5050397;28;20102;-66
2023/03/17 02:56:18;;;;;;;8.27;3.75;;;7.50;99.90;;;;;;5051530;28;20040;-65
2023/03/17 02:58:45;;;;;;;4.65;3.17;;;7.50;99.90;;;;;;5051825;28;20124;-67
2023/03/17 03:01:11;;;;;;;6.65;3.83;;;7.50;99.90;;;;;;5051838;28;20117;-65
2023/03/17 03:03:37;;;;;;;6.15;3.38;;;7.50;99.90;;;;;;5050007;28;20049;-66
2023/03/17 03:06:03;;;;;;;5.93;3.80;;;7.50;99.90;;;;;;5050567;28;20036;-66
2023/03/17 03:08:29;;;;;;;5.47;3.65;;;7.50;99.90;;;;;;5050245;28;20062;-66
2023/03/17 03:10:55;;;;;;;6.05;3.80;;;7.50;99.90;;;;;;5049584;28;20092;-65
2023/03/17 03:13:22;;;;;;;5.63;3.90;;;7.60;99.90;;;;;;5033644;28;20045;-66
2023/03/17 03:15:48;;;;;;;6.63;3.88;;;7.50;99.90;;;;;;5050025;28;20119;-66
2023/03/17 03:18:14;;;;;;;5.28;4.00;;;7.50;99.90;;;;;;5051477;28;20505;-66
2023/03/17 03:20:42;;;;;;;6.60;3.72;;;7.50;99.90;;;;;;5050397;28;20037;-66
2023/03/17 03:23:08;;;;;;;5.07;3.70;;;7.50;99.90;;;;;;5050087;28;20045;-65
2023/03/17 03:25:36;;;;;;;5.65;4.00;;;7.50;99.90;;;;;;5051237;28;20394;-65
2023/03/17 03:28:04;;;;;;;7.28;3.90;;;7.50;99.90;;;;;;5051830;28;20405;-66
2023/03/17 03:30:30;;;;;;;7.07;3.85;;;7.50;99.90;;;;;;5049987;28;20041;-65
2023/03/17 03:32:55;;;;;;;6.18;3.63;;;7.50;99.90;;;;;;5051353;28;20064;-66
2023/03/17 03:35:21;;;;;;;5.85;3.78;;;7.50;99.90;;;;;;5049859;28;20067;-66
2023/03/17 03:37:47;;;;;;;5.18;3.80;;;7.50;99.90;;;;;;5051297;28;20056;-65
2023/03/17 03:40:13;;;;;;;7.57;3.95;;;7.60;99.90;;;;;;5050078;28;20052;-67
2023/03/17 03:42:39;;;;;;;6.93;3.78;;;7.60;99.90;;;;;;5053781;28;20463;-66
2023/03/17 03:45:05;;;;;;;6.35;3.95;;;7.60;99.90;;;;;;5055364;28;20037;-65
2023/03/17 03:47:31;;;;;;;5.55;3.72;;;7.60;99.90;;;;;;5054085;28;20053;-66
2023/03/17 03:49:56;;;;;;;7.30;4.00;;;7.60;99.90;;;;;;5053759;28;20040;-66
2023/03/17 03:52:22;;;;;;;6.47;3.85;;;7.50;99.90;;;;;;5053755;28;20045;-65
2023/03/17 03:54:48;;;;;;;6.63;3.88;;;7.50;99.90;;;;;;5055003;28;20080;-65
2023/03/17 03:57:14;;;;;;;5.20;3.65;;;7.50;99.90;;;;;;5055075;28;20049;-66
2023/03/17 03:59:40;;;;;;;7.95;3.80;;;7.50;99.90;;;;;;5053470;28;20106;-65
2023/03/17 04:02:06;;;;;;;4.75;3.03;;;7.50;99.90;;;;;;5055056;28;20032;-66
2023/03/17 04:04:32;;;;;;;5.43;3.70;;;7.50;99.90;;;;;;5053750;28;20092;-65
2023/03/17 04:06:58;;;;;;;5.00;3.38;;;7.50;99.90;;;;;;5054590;28;20064;-66
2023/03/17 04:09:24;;;;;;;6.00;3.97;;;7.50;99.90;;;;;;5055270;28;20037;-65
2023/03/17 04:11:50;;;;;;;7.53;3.72;;;7.50;99.90;;;;;;5053490;28;20083;-66
2023/03/17 04:14:17;;;;;;;5.53;3.30;;;7.50;99.90;;;;;;5053836;28;20033;-65
2023/03/17 04:16:43;;;;;;;5.13;3.25;;;7.50;99.90;;;;;;5053351;28;20082;-65
2023/03/17 04:19:09;;;;;;;5.85;3.33;;;7.50;99.90;;;;;;5054607;28;20040;-66
2023/03/17 04:21:36;;;;;;;6.88;3.97;;;7.40;99.90;;;;;;5036814;28;20044;-66
2023/03/17 04:24:04;;;;;;;5.82;3.30;;;7.50;99.90;;;;;;5053381;28;20052;-65
2023/03/17 04:26:31;;;;;;;5.45;3.58;;;7.40;99.90;;;;;;5052653;28;20480;-65
2023/03/17 04:28:57;;;;;;;4.65;3.58;;;7.40;99.90;;;;;;5053252;28;20434;-65
2023/03/17 04:31:23;;;;;;;5.43;3.00;;;7.50;99.90;;;;;;5054378;28;20056;-65
2023/03/17 04:33:49;;;;;;;8.85;3.17;;;7.50;99.90;;;;;;5052941;28;20045;-65
2023/03/17 04:36:22;;;;;;;5.72;3.25;;;7.50;99.90;;;;;;5036240;28;20099;-65
2023/03/17 04:38:48;;;;;;;5.38;3.22;;;7.50;99.90;;;;;;5053134;28;20048;-65
2023/03/17 04:41:14;;;;;;;4.65;2.97;;;7.50;99.90;;;;;;5053577;28;20040;-66
2023/03/17 04:43:40;;;;;;;4.18;3.10;;;7.50;99.90;;;;;;5052875;28;20509;-65
2023/03/17 04:46:07;;;;;;;5.45;3.45;;;7.50;99.90;;;;;;5053923;28;20112;-66
2023/03/17 04:48:33;;;;;;;6.95;3.60;;;7.50;99.90;;;;;;5053553;28;20041;-65
2023/03/17 04:50:59;;;;;;;5.85;3.22;;;7.60;99.90;;;;;;5053816;28;20086;-65
2023/03/17 04:53:25;;;;;;;7.22;3.85;;;7.50;99.90;;;;;;5053297;28;20036;-66
2023/03/17 04:55:51;;;;;;;6.72;3.72;;;7.50;99.90;;;;;;5052345;28;20049;-65
2023/03/17 04:58:16;;;;;;;4.47;3.00;;;7.60;99.90;;;;;;5052866;28;20037;-65
2023/03/17 05:00:42;;;;;;;5.68;3.35;;;7.60;99.90;;;;;;5052518;28;20132;-66
2023/03/17 05:03:08;;;;;;;6.03;3.00;;;7.60;99.90;;;;;;5052290;28;20412;-67
2023/03/17 05:05:34;;;;;;;5.20;3.08;;;7.60;99.90;;;;;;5052365;28;20175;-65
2023/03/17 05:08:00;;;;;;;4.35;3.03;;;7.60;99.90;;;;;;5052202;28;20044;-65
2023/03/17 05:10:26;;;;;;;6.28;3.65;;;7.60;99.90;;;;;;5053493;28;20037;-66
2023/03/17 05:12:52;;;;;;;4.80;3.20;;;7.60;99.90;;;;;;5052349;28;20116;-66
2023/03/17 05:15:18;;;;;;;4.72;3.33;;;7.60;99.90;;;;;;5052901;28;20041;-66
2023/03/17 05:17:43;;;;;;;6.75;4.45;;;7.60;99.90;;;;;;5052332;28;20681;-66
2023/03/17 05:20:11;;;;;;;6.15;3.13;;;7.60;99.90;;;;;;5053102;28;20543;-66
2023/03/17 05:22:36;;;;;;;7.10;4.05;;;7.60;99.90;;;;;;5051684;28;20037;-65
2023/03/17 05:25:03;;;;;;;6.40;3.00;;;7.60;99.90;;;;;;5053328;28;20098;-65
2023/03/17 05:27:30;;;;;;;5.82;3.58;;;7.60;99.90;;;;;;5053446;28;20443;-65
2023/03/17 05:29:56;;;;;;;6.28;3.33;;;7.60;99.90;;;;;;5053106;28;20106;-65
2023/03/17 05:32:22;;;;;;;4.82;3.13;;;7.60;99.90;;;;;;5053272;28;20048;-65
2023/03/17 05:34:47;;;;;;;5.32;3.10;;;7.50;99.90;;;;;;5051754;28;20041;-66
2023/03/17 05:37:14;;;;;;;6.95;3.55;;;7.50;99.90;;;;;;5052549;28;20094;-65
2023/03/17 05:39:40;;;;;;;5.70;3.78;;;7.50;99.90;;;;;;5053026;28;20115;-65
2023/03/17 05:42:07;;;;;;;4.65;2.85;;;7.50;99.90;;;;;;5051538;28;20077;-65
2023/03/17 05:44:33;;;;;;;5.72;2.83;;;7.50;99.90;;;;;;5052593;28;20116;-65
2023/03/17 05:46:59;;;;;;;8.27;4.82;;;7.50;99.90;;;;;;5051808;28;20056;-67
2023/03/17 05:49:28;;;;;;;4.50;3.40;;;7.50;99.90;;;;;;5052574;28;20033;-65
2023/03/17 05:51:54;;;;;;;5.82;3.47;;;7.50;99.90;;;;;;5052751;28;20037;-66
2023/03/17 05:54:21;;;;;;;4.82;3.05;;;7.40;99.90;;;;;;5052616;28;20044;-66
2023/03/17 05:56:47;;;;;;;4.45;2.65;;;7.50;99.90;;;;;;5051007;28;20040;-66
2023/03/17 05:59:17;;;;;;;8.45;3.13;;;7.50;99.90;;;;;;5052646;28;20097;-65
2023/03/17 06:01:43;;;;;;;7.72;3.20;;;7.50;99.90;;;;;;5052482;28;20049;-65
2023/03/17 06:04:09;;;;;;;8.27;4.20;;;7.50;99.90;;;;;;5050966;28;20559;-65
2023/03/17 06:06:35;;;;;;;6.45;3.92;;;7.50;99.90;;;;;;5051300;28;20041;-65
2023/03/17 06:09:01;;;;;;;4.13;2.20;;;7.50;99.90;;;;;;5051049;28;20091;-66
2023/03/17 06:11:27;;;;;;;8.40;4.30;;;7.50;99.90;;;;;;5052273;28;20041;-65
2023/03/17 06:13:53;;;;;;;4.93;3.25;;;7.50;99.90;;;;;;5052249;28;20037;-65
2023/03/17 06:16:19;;;;;;;7.25;3.30;;;7.50;99.90;;;;;;5050792;28;20116;-65
2023/03/17 06:18:45;;;;;;;5.05;3.28;;;7.50;99.90;;;;;;5051971;28;20091;-66
2023/03/17 06:21:12;;;;;;;3.20;2.65;;;7.60;99.90;;;;;;5051003;28;20654;-65
2023/03/17 06:23:38;;;;;;;7.97;3.40;;;7.50;99.90;;;;;;5050893;28;20045;-65
2023/03/17 06:26:04;;;;;;;7.35;3.30;;;7.60;99.90;;;;;;5033384;28;20081;-66
2023/03/17 06:28:30;;;;;;;5.80;3.30;;;7.60;99.90;;;;;;5050796;28;20041;-65
2023/03/17 06:30:56;;;;;;;4.68;3.15;;;7.60;99.90;;;;;;5034155;28;20552;-65
2023/03/17 06:33:23;;;;;;;5.90;3.42;;;7.60;99.90;;;;;;5051972;28;20430;-65
2023/03/17 06:35:50;;;;;;;5.13;3.50;;;7.60;99.90;;;;;;5051008;28;20049;-65
2023/03/17 06:38:16;;;;;;;7.22;3.85;;;7.60;99.90;;;;;;5051889;28;20045;-65
2023/03/17 06:40:42;;;;;;;7.93;3.33;;;7.60;99.90;;;;;;5050078;28;20512;-65
2023/03/17 06:43:08;;;;;;;7.45;4.30;;;7.70;99.90;;;;;;5051618;28;20080;-66
2023/03/17 06:45:34;;;;;;;5.82;3.53;;;7.70;99.90;;;;;;5051492;28;20041;-65
2023/03/17 06:48:01;;;;;;;7.55;4.28;;;7.70;99.90;;;;;;5049839;28;20130;-65
2023/03/17 06:50:27;;;;;;;6.35;3.50;;;7.80;99.90;;;;;;5051504;28;20043;-65
2023/03/17 06:52:52;;;;;;;7.93;4.28;;;7.80;99.90;;;;;;5051279;28;20109;-66
2023/03/17 06:55:20;;;;;;;6.90;4.20;;;7.80;99.90;;;;;;5050119;28;20552;-66
2023/03/17 06:57:45;;;;;;;9.05;4.30;;;7.80;99.90;;;;;;5051333;28;20126;-65
2023/03/17 07:00:12;;;;;;;6.28;3.65;;;7.80;99.90;;;;;;5049649;28;20094;-65
2023/03/17 07:02:39;;;;;;;7.40;3.03;;;7.80;99.90;;;;;;5051053;28;20171;-66
2023/03/17 07:05:06;;;;;;;6.90;3.25;;;7.80;99.90;;;;;;5051675;28;20405;-66
2023/03/17 07:07:34;;;;;;;7.50;3.55;;;7.80;99.90;;;;;;5050094;28;20087;-66
2023/03/17 07:10:00;;;;;;;6.22;3.38;;;7.80;99.90;;;;;;5033575;28;20048;-65
2023/03/17 07:12:26;;;;;;;7.75;3.92;;;7.80;99.90;;;;;;5051283;28;20041;-66
2023/03/17 07:14:51;;;;;;;4.82;3.47;;;7.80;99.90;;;;;;5051277;28;20055;-66
2023/03/17 07:17:18;;;;;;;6.07;3.80;;;8.00;99.90;;;;;;5050821;28;20393;-65
2023/03/17 07:19:44;;;;;;;9.55;3.40;;;8.10;99.90;;;;;;5050076;28;20052;-65
2023/03/17 07:22:13;;;;;;;5.88;3.92;;;8.20;99.90;;;;;;5050661;28;20041;-65
2023/03/17 07:24:40;;;;;;;3.83;2.60;;;8.40;99.90;;;;;;5049634;28;20045;-65
2023/03/17 07:27:07;;;;;;;5.72;3.20;;;8.50;99.90;;;;;;5049594;28;20040;-65
2023/03/17 07:29:33;;;;;;;4.47;2.72;;;8.60;99.90;;;;;;5049347;28;20041;-65
2023/03/17 07:31:59;;;;;;;6.43;3.17;;;8.60;99.90;;;;;;5049689;28;20543;-65
2023/03/17 07:34:25;;;;;;;4.57;3.10;;;8.60;99.90;;;;;;5049708;28;20048;-66
2023/03/17 07:36:51;;;;;;;5.07;3.10;;;8.60;99.90;;;;;;5049310;28;20045;-65
2023/03/17 07:39:16;;;;;;;4.78;3.08;;;8.60;99.90;;;;;;5049585;28;20051;-66
2023/03/17 07:41:43;;;;;;;6.75;3.70;;;8.70;99.90;;;;;;5049716;28;20048;-65
2023/03/17 07:44:10;;;;;;;6.07;3.50;;;8.70;99.90;;;;;;5049243;28;20056;-64
2023/03/17 07:46:37;;;;;;;8.15;3.70;;;8.80;99.90;;;;;;5050675;28;20112;-66
2023/03/17 07:49:03;;;;;;;7.55;3.55;;;8.80;99.90;;;;;;5047251;28;20053;-65
2023/03/17 07:51:29;;;;;;;6.82;3.72;;;8.90;99.90;;;;;;5050327;28;20041;-66
2023/03/17 07:54:02;;;;;;;5.15;2.78;;;9.00;99.90;;;;;;5049038;28;20425;-66
2023/03/17 07:56:29;;;;;;;4.60;2.92;;;9.10;99.90;;;;;;5043149;28;20108;-65
2023/03/17 07:58:57;;;;;;;6.32;3.80;;;9.20;99.90;;;;;;5029234;28;20038;-67
2023/03/17 08:01:24;;;;;;;5.72;3.53;;;9.40;99.90;;;;;;5062161;28;20050;-65
2023/03/17 08:03:50;;;;;;;5.40;3.17;;;9.40;99.90;;;;;;5048412;28;20502;-65
2023/03/17 08:06:16;;;;;;;5.80;3.33;;;9.50;99.90;;;;;;5048613;28;20122;-65
2023/03/17 08:08:41;;;;;;;6.43;3.40;;;9.50;99.90;;;;;;5049887;28;20041;-66
2023/03/17 08:11:08;;;;;;;5.30;3.42;;;9.60;99.90;;;;;;5048484;28;20751;-65
2023/03/17 08:13:34;;;;;;;6.95;3.30;;;9.60;99.90;;;;;;5048909;28;20041;-65
2023/03/17 08:16:00;;;;;;;4.18;3.03;;;9.50;99.90;;;;;;5049986;28;20037;-65
2023/03/17 08:18:26;;;;;;;7.00;3.30;;;9.60;99.90;;;;;;5047465;28;20095;-65
2023/03/17 08:20:52;;;;;;;4.82;3.72;;;9.50;99.90;;;;;;5048619;28;20475;-65
2023/03/17 08:23:19;;;;;;;5.32;3.10;;;9.50;99.90;;;;;;5049690;28;20037;-65
2023/03/17 08:25:46;;;;;;;5.38;3.58;;;9.50;99.90;;;;;;5049389;28;20064;-65
2023/03/17 08:28:13;;;;;;;5.00;3.33;;;9.50;99.90;;;;;;5049869;28;20037;-65
2023/03/17 08:30:38;;;;;;;5.20;3.13;;;9.70;99.90;;;;;;5053590;28;20068;-65
2023/03/17 08:33:04;;;;;;;9.05;3.72;;;9.80;99.90;;;;;;5052922;28;20142;-65
2023/03/17 08:35:31;;;;;;;7.03;3.30;;;10.20;99.90;;;;;;5051856;28;20136;-65
2023/03/17 08:37:57;;;;;;;13.50;4.00;;;10.50;99.90;;;;;;5051148;28;20510;-65
2023/03/17 08:40:23;;;;;;;5.47;3.60;;;10.90;99.90;;;;;;5052081;28;20040;-65
2023/03/17 08:42:50;;;;;;;5.35;3.22;;;11.40;99.90;;;;;;5051940;28;20397;-65
2023/03/17 08:45:17;;;;;;;7.30;4.15;;;11.90;99.90;;;;;;5051017;28;20079;-65
2023/03/17 08:47:43;;;;;;;5.32;3.10;;;12.50;99.90;;;;;;5051995;28;20543;-65
2023/03/17 08:50:15;;;;;;;5.53;3.15;;;12.90;99.90;;;;;;5051783;28;20037;-65
2023/03/17 08:52:41;;;;;;;6.30;3.40;;;13.40;99.90;;;;;;5051148;28;20040;-65
2023/03/17 08:55:07;;;;;;;4.43;2.80;;;13.70;99.90;;;;;;5053323;28;20052;-65
2023/03/17 08:57:34;;;;;;;5.13;3.03;;;13.70;99.90;;;;;;5051914;28;20087;-65
2023/03/17 09:00:01;;;;;;;5.10;2.75;;;13.60;99.90;;;;;;5051023;28;20801;-65
2023/03/17 09:02:27;;;;;;;5.50;2.92;;;13.80;99.90;;;;;;5043147;28;20069;-65
2023/03/17 09:04:53;;;;;;;5.97;3.00;;;14.40;99.90;;;;;;5032996;28;20061;-66
2023/03/17 09:07:19;;;;;;;3.53;2.65;;;14.70;99.90;;;;;;5030930;28;20038;-65
2023/03/17 09:09:45;;;;;;;5.85;3.15;;;15.10;99.90;;;;;;5032603;28;20029;-65
2023/03/17 09:12:11;;;;;;;5.70;2.90;;;15.40;99.90;;;;;;5064744;28;20371;-65
2023/03/17 09:14:38;;;;;;;6.38;2.90;;;15.50;99.90;;;;;;5031094;28;20041;-65
2023/03/17 09:17:04;;;;;;;5.90;3.17;;;15.80;99.90;;;;;;5032937;28;20413;-65
2023/03/17 09:19:30;;;;;;;4.38;2.58;;;16.10;99.90;;;;;;5032581;28;20045;-65
2023/03/17 09:21:56;;;;;;;6.18;3.15;;;16.20;99.90;;;;;;5030804;28;20044;-65
2023/03/17 09:24:22;;;;;;;6.07;2.85;;;16.40;99.90;;;;;;5032728;28;20057;-65
2023/03/17 09:26:48;;;;;;;4.80;3.47;;;16.60;99.90;;;;;;5031735;28;20107;-65
2023/03/17 09:29:14;;;;;;;7.00;2.95;;;16.70;99.90;;;;;;5032482;28;20041;-65
2023/03/17 09:31:41;;;;;;;5.68;3.03;;;16.80;99.90;;;;;;5064346;28;20603;-65
2023/03/17 09:34:07;;;;;;;6.38;3.38;;;16.80;99.90;;;;;;5063546;28;20048;-65
2023/03/17 09:36:33;;;;;;;5.57;3.15;;;16.80;99.90;;;;;;5032619;28;20133;-65
2023/03/17 09:38:59;;;;;;;4.97;3.33;;;17.00;99.90;;;;;;5032194;28;20080;-65
2023/03/17 09:41:25;;;;;;;5.00;3.05;;;17.00;99.90;;;;;;5063415;28;20081;-65
2023/03/17 09:44:19;;;;;;;7.93;3.25;;;16.90;99.90;;;;;;5044033;28;20041;-65
2023/03/17 09:47:12;;;;;;;7.30;3.42;;;16.80;99.80;;;;;;5052337;28;20477;-66
2023/03/17 09:49:54;;;;;;;6.20;3.45;;;16.70;99.30;;;;;;5031621;28;20060;-64
2023/03/17 09:52:35;;;;;;;4.90;3.20;;;16.80;99.90;;;;;;5052342;28;20087;-65
2023/03/17 09:55:07;;;;;;;6.05;3.65;;;16.90;99.50;;;;;;5051513;28;20105;-62
2023/03/17 09:57:38;;;;;;;6.90;3.83;;;17.10;99.90;;;;;;5050647;28;20087;-65
2023/03/17 10:00:18;;;;;;;7.72;3.63;;;17.30;99.90;;;;;;5043803;28;20119;-65
2023/03/17 10:02:45;;;;;;;7.45;4.22;;;17.80;99.50;;;;;;5031462;28;20045;-65
2023/03/17 10:05:25;;;;;;;6.80;4.25;;;18.20;99.80;;;;;;5032908;28;20053;-65
2023/03/17 10:08:01;;;;;;;6.88;4.65;;;18.80;99.10;;;;;;5031821;28;20045;-65
2023/03/17 10:10:47;;;;;;;8.55;3.83;;;18.90;98.20;;;;;;5063395;28;20033;-65
2023/03/17 10:13:53;;;;;;;7.15;3.88;;;19.00;99.10;;;;;;5063367;28;20132;-65
2023/03/17 10:16:29;;;;;;;6.38;3.60;;;19.30;98.00;;;;;;5012409;28;20060;-65
2023/03/17 10:19:21;;;;;;;5.50;3.70;;;19.60;97.40;;;;;;5029148;28;20131;-65
2023/03/17 10:21:57;;;;;;;6.70;3.67;;;19.60;96.70;;;;;;5010430;28;20485;-65
2023/03/17 10:24:24;;;;;;;5.85;3.50;;;19.70;96.60;;;;;;5031938;28;20044;-64
2023/03/17 10:26:52;;;;;;;6.25;3.95;;;19.70;96.00;;;;;;5032022;28;20831;-65
2023/03/17 10:29:21;;;;;;;5.40;3.20;;;19.70;95.70;;;;;;5032393;28;20045;-66
2023/03/17 10:31:48;;;;;;;7.35;4.28;;;19.60;95.40;;;;;;5021680;28;20053;-65
2023/03/17 10:34:31;;;;;;;5.68;4.03;;;19.50;95.50;;;;;;5028752;28;20125;-65
2023/03/17 10:36:59;;;;;;;5.95;4.18;;;19.70;95.60;;;;;;5011664;28;20034;-65
2023/03/17 10:39:26;;;;;;;7.50;4.13;;;19.70;95.30;;;;;;5028808;28;20049;-65
2023/03/17 10:42:07;;;;;;;16.27;8.68;;;19.70;95.60;;;;;;5028800;28;20735;-65
2023/03/17 10:44:57;;;;;;;26.27;12.95;;;20.20;95.80;;;;;;5047139;28;20048;-65
2023/03/17 10:47:28;;;;;;;21.20;12.23;;;20.10;94.80;;;;;;5048610;28;20733;-65
2023/03/17 10:49:57;;;;;;;19.23;11.38;;;19.50;95.00;;;;;;5048592;28;20397;-65
2023/03/17 10:52:27;;;;;;;15.25;7.97;;;19.10;95.90;;;;;;5033503;28;20049;-65
2023/03/17 10:54:53;;;;;;;9.68;4.50;;;19.00;96.40;;;;;;5030900;28;20460;-65
2023/03/17 10:57:20;;;;;;;7.75;4.50;;;19.10;96.40;;;;;;5029539;28;20485;-65
2023/03/17 10:59:52;;;;;;;7.45;4.50;;;19.30;96.60;;;;;;5029137;28;20053;-65
2023/03/17 11:02:27;;;;;;;7.88;4.22;;;20.10;96.40;;;;;;5012833;28;20057;-65
2023/03/17 11:04:58;;;;;;;9.05;3.72;;;20.70;96.10;;;;;;5028841;28;20081;-65
2023/03/17 11:07:37;;;;;;;5.18;3.67;;;20.80;96.10;;;;;;5014137;28;20041;-65
2023/03/17 11:10:18;;;;;;;8.80;4.13;;;20.70;95.40;;;;;;4993762;28;20107;-65
2023/03/17 11:12:49;;;;;;;8.85;4.47;;;21.00;95.40;;;;;;5028835;28;20061;-66
2023/03/17 11:15:17;;;;;;;8.88;4.03;;;21.30;94.50;;;;;;5030449;28;20409;-65
2023/03/17 11:17:52;;;;;;;6.28;4.68;;;21.50;94.00;;;;;;5029433;28;20056;-65
2023/03/17 11:20:38;;;;;;;6.60;4.53;;;21.80;93.70;;;;;;5029788;28;20128;-65
2023/03/17 11:23:22;;;;;;;6.93;4.28;;;22.10;93.30;;;;;;5030691;28;20076;-65
2023/03/17 11:26:13;;;;;;;7.10;4.13;;;22.40;93.10;;;;;;5038372;28;20140;-65
2023/03/17 11:28:48;;;;;;;6.85;4.50;;;22.40;91.50;;;;;;5072002;28;20509;-65
2023/03/17 11:31:29;;;;;;;6.45;4.20;;;21.60;91.70;;;;;;5048997;28;20517;-65
2023/03/17 11:34:18;;;;;;;6.53;4.50;;;20.80;92.40;;;;;;5048920;28;20045;-65
2023/03/17 11:36:56;;;;;;;5.80;4.05;;;20.50;92.60;;;;;;5046653;28;20080;-65
2023/03/17 11:39:27;;;;;;;6.50;4.25;;;20.40;92.90;;;;;;5030486;28;20120;-65
2023/03/17 11:42:07;;;;;;;7.47;4.70;;;20.70;93.10;;;;;;5028869;28;20060;-65
2023/03/17 11:44:50;;;;;;;8.60;5.53;;;21.20;93.00;;;;;;5048029;28;20048;-65
2023/03/17 11:47:41;;;;;;;8.95;4.93;;;21.60;93.00;;;;;;5049488;28;20052;-65
2023/03/17 11:50:08;;;;;;;8.85;5.22;;;21.70;92.60;;;;;;5048925;28;20049;-65
2023/03/17 11:52:43;;;;;;;7.97;4.50;;;21.30;92.00;;;;;;5050072;28;20548;-65
2023/03/17 11:55:47;;;;;;;7.55;4.85;;;20.70;91.30;;;;;;5048656;28;20122;-65
2023/03/17 11:58:38;;;;;;;6.55;4.80;;;20.00;92.20;;;;;;5050314;28;20037;-65
2023/03/17 12:01:08;;;;;;;7.55;4.70;;;19.80;92.90;;;;;;5049143;28;20132;-65
2023/03/17 12:03:57;;;;;;;7.90;5.68;;;19.70;93.60;;;;;;5052393;28;20497;-65
2023/03/17 12:06:44;;;;;;;7.53;4.70;;;19.90;94.50;;;;;;5054139;28;20115;-65
2023/03/17 12:09:19;;;;;;;10.10;5.53;;;20.00;93.00;;;;;;5053867;28;20303;-65
2023/03/17 12:11:46;;;;;;;9.10;5.20;;;19.90;93.90;;;;;;5054365;28;20072;-65
2023/03/17 12:14:29;;;;;;;10.15;5.03;;;20.00;93.70;;;;;;5052912;28;20064;-65
2023/03/17 12:17:15;;;;;;;7.35;5.45;;;19.90;93.10;;;;;;5052358;28;20045;-65
2023/03/17 12:19:53;;;;;;;8.32;4.95;;;19.60;93.20;;;;;;5053393;28;20048;-65
2023/03/17 12:22:45;;;;;;;7.05;5.03;;;19.20;93.40;;;;;;5050987;28;20040;-65
2023/03/17 12:25:34;;;;;;;9.80;5.75;;;18.90;93.70;;;;;;5051511;28;20095;-65
2023/03/17 12:28:24;;;;;;;7.90;5.10;;;18.80;95.10;;;;;;5053166;28;20037;-65
2023/03/17 12:31:19;;;;;;;7.95;5.53;;;19.00;94.90;;;;;;5052585;28;20408;-65
2023/03/17 12:33:53;;;;;;;7.13;5.13;;;19.00;94.30;;;;;;5050948;28;20053;-65
2023/03/17 12:36:21;;;;;;;9.15;5.20;;;18.80;94.30;;;;;;5051007;28;20041;-66
2023/03/17 12:38:58;;;;;;;7.90;5.45;;;18.50;94.30;;;;;;5051490;28;20049;-66
2023/03/17 12:41:55;;;;;;;9.07;5.65;;;18.30;94.90;;;;;;5052955;28;20052;-65
2023/03/17 12:44:30;;;;;;;10.68;6.25;;;18.30;94.80;;;;;;5052082;28;20517;-65
2023/03/17 12:47:29;;;;;;;9.55;5.53;;;18.10;94.80;;;;;;5052324;28;20542;-65
2023/03/17 12:50:37;;;;;;;8.73;5.45;;;18.00;95.10;;;;;;5052788;28;20052;-65
2023/03/17 12:53:21;;;;;;;10.73;5.50;;;17.80;95.10;;;;;;5053146;28;20087;-65
2023/03/17 12:55:51;;;;;;;7.63;5.32;;;17.60;95.50;;;;;;5053273;28;20045;-65
2023/03/17 12:58:39;;;;;;;7.93;5.18;;;17.40;95.90;;;;;;5051563;28;20521;-66
2023/03/17 13:01:13;;;;;;;11.15;6.97;;;17.50;95.80;;;;;;5052015;28;20216;-65
2023/03/17 13:04:01;;;;;;;11.75;7.05;;;17.30;95.40;;;;;;5053192;28;20037;-65
2023/03/17 13:06:33;;;;;;;10.43;5.72;;;17.10;95.60;;;;;;5035433;28;20389;-65
2023/03/17 13:09:41;;;;;;;8.52;6.13;;;16.90;95.90;;;;;;5052110;28;20044;-66